Buoy 13624

sailwx.info

Track history (hours):
 
Tides and Currents Weather Stations Pressure Air Temp Water Temp Dewpoint Dewpoint Depression Visibility Wind Speed Wind Dir Waves Ship Positions

Drifting buoy 13624

Last reported at 2018-Jun-22 00:52 UTC. Time now 2018-Jun-22 01:58 UTC.
Position N 33°55' W 041°05'.

Water temperature 25.2 ° C

Date/timePositionNaut miles runAvg speedWind from/ knotsBaromVisibWave heightAir tempDewpointWater temp
2018-Jun-22 00:52N 33°55' W 041°05'0 0.0 25.2
2018-Jun-22 00:49N 33°55' W 041°05'0 7.5 25.2
2018-Jun-22 00:45N 33°55' W 041°05'0 0.0 25.2
2018-Jun-22 00:12N 33°55' W 041°05'0 0.0 25.2
2018-Jun-22 00:10N 33°55' W 041°05'0 0.0 25.2
2018-Jun-22 00:04N 33°55' W 041°05'0 0.0 25.2
2018-Jun-22 00:03N 33°55' W 041°05'0 0.0 25.2
2018-Jun-21 23:58N 33°55' W 041°05'0 0.0 25.2
2018-Jun-21 23:12N 33°55' W 041°05'1 6.0 25.2
2018-Jun-21 23:06N 33°54' W 041°05'1 7.2 25.2
2018-Jun-21 23:01N 33°55' W 041°05'0 0.0 25.2
2018-Jun-21 22:25N 33°55' W 041°05'110.0 25.2
2018-Jun-21 22:19N 33°55' W 041°04'0 0.8 25.2
2018-Jun-21 21:40N 33°55' W 041°04'0 0.0 25.2
2018-Jun-21 21:37N 33°55' W 041°04'0 0.0 25.2
2018-Jun-21 21:31N 33°55' W 041°04'0 0.6 25.2
2018-Jun-21 20:40N 33°55' W 041°05'0 0.8 25.3
2018-Jun-21 20:01N 33°55' W 041°05'0 0.0 25.4
2018-Jun-21 19:48N 33°55' W 041°05'110.0 25.4
2018-Jun-21 19:42N 33°55' W 041°07'0 0.0 25.4
2018-Jun-21 18:10N 33°55' W 041°07'0 0.0 25.5
2018-Jun-21 18:06N 33°55' W 041°07'1 0.9 25.5
2018-Jun-21 16:25N 33°55' W 041°08'3 1.5 25.4
2018-Jun-21 14:30N 33°52' W 041°10'1 0.8 25.3
2018-Jun-21 13:34N 33°52' W 041°11'0 0.0 25.1
2018-Jun-21 12:54N 33°52' W 041°11'0 0.0 25.1
2018-Jun-21 12:49N 33°52' W 041°11'1 7.8 25.1
2018-Jun-21 12:43N 33°51' W 041°11'136.0 25.1
2018-Jun-21 12:42N 33°52' W 041°11'1 6.0 25.1
2018-Jun-21 12:36N 33°51' W 041°11'0 0.0 25.1
2018-Jun-21 11:58N 33°51' W 041°11'0 0.0 25.1
2018-Jun-21 11:51N 33°51' W 041°11'0 0.0 25.1
2018-Jun-21 11:46N 33°51' W 041°11'146.8 25.1
2018-Jun-21 11:45N 33°50' W 041°12'1 0.9 25.1
2018-Jun-21 11:03N 33°50' W 041°12'0 3.7 25.1
2018-Jun-21 10:55N 33°50' W 041°13'136.0
2018-Jun-21 10:54N 33°49' W 041°13'0 0.0 25.0
2018-Jun-21 10:19N 33°49' W 041°13'1 1.3 25.0
2018-Jun-21 09:19N 33°48' W 041°12'0 0.0 24.9
2018-Jun-21 09:16N 33°48' W 041°12'1 6.7 24.9
2018-Jun-21 09:09N 33°47' W 041°13'0 1.2 24.9
2018-Jun-21 08:45N 33°47' W 041°12'0 3.7 24.9
2018-Jun-21 08:37N 33°47' W 041°13'0 0.0 24.9
2018-Jun-21 08:27N 33°47' W 041°13'1 5.9 24.9
2018-Jun-21 08:19N 33°47' W 041°12'0 0.0 24.9
2018-Jun-21 08:16N 33°47' W 041°12'0 0.0 24.9
2018-Jun-21 07:37N 33°47' W 041°12'1 0.6 24.9
2018-Jun-21 06:40N 33°46' W 041°12'029.9 24.9
2018-Jun-21 06:39N 33°46' W 041°11'1 0.1 24.9
2018-Jun-21 01:12N 33°46' W 041°11'0 0.0 24.8
2018-Jun-21 01:04N 33°46' W 041°11'0 0.8 24.8
2018-Jun-21 00:25N 33°46' W 041°11'1 4.0 24.8
2018-Jun-21 00:16N 33°45' W 041°11'0 7.5 24.8
2018-Jun-21 00:12N 33°45' W 041°11'0 0.0 24.8
2018-Jun-20 23:33N 33°45' W 041°11'0 0.0 24.8
2018-Jun-20 23:25N 33°45' W 041°11'0 0.7 24.8
2018-Jun-20 22:45N 33°45' W 041°11'010.0 24.8
2018-Jun-20 22:42N 33°45' W 041°12'0 0.0 24.8
2018-Jun-20 22:37N 33°45' W 041°12'0 5.0 24.8
2018-Jun-20 22:31N 33°45' W 041°11'0 0.0 24.8
2018-Jun-20 22:06N 33°45' W 041°11'0 6.0 24.8
2018-Jun-20 22:01N 33°45' W 041°12'0 0.0 24.8
2018-Jun-20 20:55N 33°45' W 041°12'0 0.0
2018-Jun-20 20:54N 33°45' W 041°12'1 1.5 24.9
2018-Jun-20 20:22N 33°44' W 041°13'0 0.0 24.9
2018-Jun-20 20:01N 33°44' W 041°13'217.6 24.9
2018-Jun-20 19:54N 33°43' W 041°14'0 0.0 24.9
2018-Jun-20 18:22N 33°43' W 041°14'0 0.0 24.9
2018-Jun-20 18:16N 33°43' W 041°14'3 1.8 24.9
2018-Jun-20 16:37N 33°40' W 041°14'0 0.0 24.9
2018-Jun-20 13:54N 33°40' W 041°14'0 0.0 24.8
2018-Jun-20 13:51N 33°40' W 041°14'112.0 24.8
2018-Jun-20 13:48N 33°39' W 041°14'0 0.0 24.8
2018-Jun-20 13:15N 33°39' W 041°14'0 0.0 24.8
2018-Jun-20 13:10N 33°39' W 041°14'0 0.0 24.8
2018-Jun-20 12:52N 33°39' W 041°14'0 7.5 24.7
2018-Jun-20 12:48N 33°39' W 041°14'0 0.0 24.7
2018-Jun-20 12:12N 33°39' W 041°14'0 0.0 24.7
2018-Jun-20 12:09N 33°39' W 041°14'112.0 24.7
2018-Jun-20 12:06N 33°38' W 041°14'0 0.0 24.7
2018-Jun-20 11:31N 33°38' W 041°14'0 0.0 24.6
2018-Jun-20 11:25N 33°38' W 041°14'0 2.0 24.6
2018-Jun-20 11:10N 33°38' W 041°14'0 0.0 24.6
2018-Jun-20 11:04N 33°38' W 041°14'0 0.0 24.6
2018-Jun-20 10:49N 33°38' W 041°14'1 0.7 24.6
2018-Jun-20 09:46N 33°38' W 041°14'010.0 24.6
2018-Jun-20 09:43N 33°38' W 041°14'0 7.5 24.6
2018-Jun-20 09:39N 33°38' W 041°14'0 0.0 24.6
2018-Jun-20 09:31N 33°38' W 041°14'0 0.0 24.6
2018-Jun-20 09:27N 33°38' W 041°14'0 0.0 24.6
2018-Jun-20 08:39N 33°38' W 041°14'1 7.8 24.6
2018-Jun-20 08:33N 33°37' W 041°14'0 0.0 24.6
2018-Jun-20 08:28N 33°37' W 041°14'1 2.2 24.6
2018-Jun-20 08:07N 33°38' W 041°14'1 0.7 24.7
2018-Jun-20 07:00N 33°37' W 041°14'0 0.0 24.7
2018-Jun-20 06:55N 33°37' W 041°14'0 0.0 24.7
2018-Jun-20 06:48N 33°37' W 041°14'0 0.0 24.7
2018-Jun-20 06:25N 33°37' W 041°14'2 1.5 24.7
2018-Jun-20 05:10N 33°35' W 041°15'0 0.0 24.7
2018-Jun-20 01:31N 33°35' W 041°15'1 6.0 24.7
2018-Jun-20 01:25N 33°36' W 041°15'0 0.0 24.7
2018-Jun-20 00:52N 33°36' W 041°15'0 0.0 24.7
2018-Jun-20 00:45N 33°36' W 041°15'1 3.5 24.7
2018-Jun-20 00:25N 33°35' W 041°16'0 0.0 24.7
2018-Jun-19 23:54N 33°35' W 041°16'0 0.0 24.7
2018-Jun-19 23:49N 33°35' W 041°16'0 7.5 24.7
2018-Jun-19 23:45N 33°35' W 041°16'0 0.0 24.7
2018-Jun-19 23:10N 33°35' W 041°16'136.0 24.7
2018-Jun-19 23:09N 33°35' W 041°16'0 5.0 24.8
2018-Jun-19 23:03N 33°35' W 041°16'0 0.0 24.8
2018-Jun-19 22:49N 33°35' W 041°16'0 0.0 24.8
2018-Jun-19 22:30N 33°35' W 041°16'112.0 24.8
2018-Jun-19 22:27N 33°34' W 041°16'1 2.6 24.8
2018-Jun-19 22:13N 33°35' W 041°16'1 6.0 24.8
2018-Jun-19 22:07N 33°34' W 041°16'0 0.0 24.8
2018-Jun-19 22:04N 33°34' W 041°16'0 0.0 24.8
2018-Jun-19 21:07N 33°34' W 041°16'0 0.0 24.9
2018-Jun-19 20:55N 33°34' W 041°16'1 0.8 24.9
2018-Jun-19 20:12N 33°34' W 041°16'0 0.0 25.0
2018-Jun-19 20:04N 33°34' W 041°16'0 0.0 25.0
2018-Jun-19 19:09N 33°34' W 041°16'0 0.0 25.1
2018-Jun-19 18:33N 33°34' W 041°16'0 0.0 25.1
2018-Jun-19 18:24N 33°34' W 041°16'1 0.5 25.1
2018-Jun-19 16:51N 33°33' W 041°17'1 0.4 25.2
2018-Jun-19 14:13N 33°32' W 041°18'130.0 25.2
2018-Jun-19 14:12N 33°32' W 041°17'0 0.0 25.2
2018-Jun-19 13:36N 33°32' W 041°17'115.6 25.2
2018-Jun-19 13:33N 33°32' W 041°18'0 0.0 25.2
2018-Jun-19 13:04N 33°32' W 041°18'0 0.0 25.1
2018-Jun-19 13:00N 33°32' W 041°18'0 0.0 25.1
2018-Jun-19 12:34N 33°32' W 041°18'0 0.0 25.1
2018-Jun-19 12:31N 33°32' W 041°18'110.0 25.1
2018-Jun-19 12:28N 33°32' W 041°17'110.0 25.1
2018-Jun-19 12:25N 33°32' W 041°18'0 0.0 25.1
2018-Jun-19 11:52N 33°32' W 041°18'0 0.0 25.1
2018-Jun-19 11:48N 33°32' W 041°18'1 1.1 25.1
2018-Jun-19 11:21N 33°32' W 041°19'1 3.3 25.1
2018-Jun-19 11:10N 33°31' W 041°19'1 1.9 25.1
2018-Jun-19 10:54N 33°31' W 041°18'1 7.8 25.1
2018-Jun-19 10:48N 33°31' W 041°19'0 0.0 25.1
2018-Jun-19 10:13N 33°31' W 041°19'1 1.3 25.1
2018-Jun-19 09:45N 33°31' W 041°19'1 5.9 25.1
2018-Jun-19 09:37N 33°31' W 041°19'0 0.0 25.1
2018-Jun-19 08:49N 33°31' W 041°19'0 0.0 25.1
2018-Jun-19 08:46N 33°31' W 041°19'1 7.8 25.1
2018-Jun-19 08:40N 33°30' W 041°20'146.9 25.1
2018-Jun-19 08:39N 33°31' W 041°19'1 5.2 25.1
2018-Jun-19 08:30N 33°30' W 041°20'0 0.0 25.1
2018-Jun-19 07:10N 33°30' W 041°20'0 0.0 25.1
2018-Jun-19 07:07N 33°30' W 041°20'212.5 25.1
2018-Jun-19 06:58N 33°28' W 041°20'0 0.0 25.1
2018-Jun-19 05:27N 33°28' W 041°20'224.5 25.0
2018-Jun-19 05:21N 33°26' W 041°21'0 0.0 25.0
2018-Jun-19 01:10N 33°26' W 041°21'112.0 25.2
2018-Jun-19 01:04N 33°25' W 041°21'0 0.0 25.2
2018-Jun-19 00:15N 33°25' W 041°21'0 0.0 25.2
2018-Jun-19 00:06N 33°25' W 041°21'0 0.0 25.2
2018-Jun-18 23:31N 33°25' W 041°21'0 0.0 25.2
2018-Jun-18 23:27N 33°25' W 041°21'0 0.0 25.2
2018-Jun-18 23:24N 33°25' W 041°21'1 2.0 25.2
2018-Jun-18 23:01N 33°24' W 041°22'110.0 25.2
2018-Jun-18 22:58N 33°24' W 041°21'1 5.0 25.2
2018-Jun-18 22:52N 33°24' W 041°22'1 1.7 25.2
2018-Jun-18 22:34N 33°24' W 041°21'1 0.7 25.2
2018-Jun-18 21:25N 33°23' W 041°20'1 7.5 25.2
2018-Jun-18 21:21N 33°23' W 041°21'0 0.0 25.2
2018-Jun-18 21:16N 33°23' W 041°21'1 0.7 25.2
2018-Jun-18 20:22N 33°23' W 041°21'1 0.9 25.3
2018-Jun-18 19:43N 33°23' W 041°21'0 0.0 25.3
2018-Jun-18 19:36N 33°23' W 041°21'1 1.4 25.3
2018-Jun-18 18:40N 33°22' W 041°22'228.0 25.3
2018-Jun-18 18:36N 33°20' W 041°22'1 0.3 25.4
2018-Jun-18 17:01N 33°20' W 041°22'3 0.8 25.4
2018-Jun-18 13:55N 33°18' W 041°20'110.0 25.3
2018-Jun-18 13:48N 33°17' W 041°19'0 0.0 25.3
2018-Jun-18 13:12N 33°17' W 041°19'0 0.0 25.3
2018-Jun-18 12:57N 33°17' W 041°19'1 0.7 25.3
2018-Jun-18 12:13N 33°17' W 041°20'0 0.0 25.3
2018-Jun-18 12:10N 33°17' W 041°20'0 0.0 25.3
2018-Jun-18 12:07N 33°17' W 041°20'0 0.0 25.3
2018-Jun-18 11:37N 33°17' W 041°20'0 0.0 25.3
2018-Jun-18 11:34N 33°17' W 041°20'136.0 25.3
2018-Jun-18 11:33N 33°17' W 041°20'0 0.0 25.3
2018-Jun-18 11:15N 33°17' W 041°20'0 0.0 25.3
2018-Jun-18 11:12N 33°17' W 041°20'112.0 25.3
2018-Jun-18 11:09N 33°16' W 041°20'0 0.0 25.3
2018-Jun-18 09:55N 33°16' W 041°20'0 0.0 25.2
2018-Jun-18 09:51N 33°16' W 041°20'0 0.0 25.2
2018-Jun-18 09:09N 33°16' W 041°20'0 0.0 25.2
2018-Jun-18 09:01N 33°16' W 041°20'0 0.0 25.2
2018-Jun-18 09:00N 33°16' W 041°20'1 4.5 25.2
2018-Jun-18 08:52N 33°16' W 041°20'0 0.0 25.2
2018-Jun-18 08:15N 33°16' W 041°20'1 0.8 25.2
2018-Jun-18 07:30N 33°15' W 041°20'1 7.5 25.2
2018-Jun-18 07:22N 33°15' W 041°21'0 0.0 25.2
2018-Jun-18 07:19N 33°15' W 041°21'212.5 25.2
2018-Jun-18 07:10N 33°13' W 041°20'0 0.0
2018-Jun-18 05:37N 33°13' W 041°20'463.4 25.3
2018-Jun-18 05:33N 33°09' W 041°21'0 0.0 25.3
2018-Jun-18 01:30N 33°09' W 041°21'115.7 25.4
2018-Jun-18 01:27N 33°08' W 041°20'1 0.7 25.4
2018-Jun-18 00:36N 33°08' W 041°20'1 5.2 25.4
2018-Jun-18 00:27N 33°07' W 041°20'0 0.0 25.4
2018-Jun-17 23:55N 33°07' W 041°20'0 0.0 25.4
2018-Jun-17 23:49N 33°07' W 041°20'1 1.0 25.4
2018-Jun-17 23:13N 33°07' W 041°20'0 0.0 25.4
2018-Jun-17 22:55N 33°07' W 041°20'110.3 25.4
2018-Jun-17 22:48N 33°05' W 041°20'0 0.0 25.4
2018-Jun-17 22:13N 33°05' W 041°20'0 0.0 25.4
2018-Jun-17 21:57N 33°05' W 041°20'1 2.0 25.4
2018-Jun-17 21:42N 33°05' W 041°19'1 5.2 25.4
2018-Jun-17 21:33N 33°05' W 041°20'1 1.3 25.4
2018-Jun-17 20:31N 33°04' W 041°19'0 0.0 25.4
2018-Jun-17 20:16N 33°04' W 041°19'1 2.0 25.4
2018-Jun-17 20:01N 33°04' W 041°20'2 1.4 25.4
2018-Jun-17 18:55N 33°02' W 041°19'0 0.0 25.5
2018-Jun-17 18:48N 33°02' W 041°19'2 1.2 25.5
2018-Jun-17 17:15N 33°01' W 041°19'0 0.0 25.4
2018-Jun-17 17:10N 33°01' W 041°19'3 0.9 25.4
2018-Jun-17 14:15N 32°58' W 041°17'1 9.0 25.4
2018-Jun-17 14:07N 32°57' W 041°17'0 0.0 25.4
2018-Jun-17 13:18N 32°57' W 041°17'1 0.9 25.4
2018-Jun-17 12:37N 32°56' W 041°17'0 0.0 25.3
2018-Jun-17 12:31N 32°56' W 041°17'0 0.0 25.3
2018-Jun-17 12:27N 32°56' W 041°17'0 0.0 25.3
2018-Jun-17 11:51N 32°56' W 041°17'0 0.0 25.3
2018-Jun-17 11:46N 32°56' W 041°17'0 0.0 25.3
2018-Jun-17 11:40N 32°56' W 041°17'1 6.0 25.2
2018-Jun-17 11:34N 32°56' W 041°17'0 0.0 25.2
2018-Jun-17 11:30N 32°56' W 041°17'1 0.9 25.2
2018-Jun-17 10:52N 32°55' W 041°17'0 0.0 25.2
2018-Jun-17 10:22N 32°55' W 041°17'0 0.0 25.2
2018-Jun-17 10:19N 32°55' W 041°17'0 0.0 25.2
2018-Jun-17 10:07N 32°55' W 041°17'1 5.1 25.2
2018-Jun-17 10:00N 32°55' W 041°17'1 1.5 25.2
2018-Jun-17 09:40N 32°55' W 041°18'110.1 25.2
2018-Jun-17 09:37N 32°55' W 041°17'1 7.6 25.2
2018-Jun-17 09:33N 32°55' W 041°18'0 0.0 25.2
2018-Jun-17 09:10N 32°55' W 041°18'110.1 25.2
2018-Jun-17 09:07N 32°55' W 041°17'112.0 25.2
2018-Jun-17 09:04N 32°54' W 041°17'0 0.0 25.2
2018-Jun-17 08:43N 32°54' W 041°17'1 6.7 25.2
2018-Jun-17 08:36N 32°53' W 041°18'0 0.0 25.2
2018-Jun-17 08:01N 32°53' W 041°18'1 1.7 25.2
2018-Jun-17 07:34N 32°53' W 041°19'0 0.0 25.2
2018-Jun-17 07:28N 32°53' W 041°19'112.0 25.2
2018-Jun-17 07:22N 32°52' W 041°19'0 0.0 25.2
2018-Jun-17 06:19N 32°52' W 041°19'1 2.6 25.3
2018-Jun-17 05:51N 32°50' W 041°19'766.2 25.3
2018-Jun-17 05:45N 32°44' W 041°19'0 0.0 25.3
2018-Jun-17 00:54N 32°44' W 041°19'1 7.8 25.6
2018-Jun-17 00:48N 32°43' W 041°19'0 0.0 25.6
2018-Jun-17 00:16N 32°43' W 041°19'0 0.0 25.6
2018-Jun-17 00:13N 32°43' W 041°19'1 5.0 25.6
2018-Jun-17 00:07N 32°43' W 041°18'1 1.7 25.6
2018-Jun-16 23:24N 32°42' W 041°18'0 0.0 25.6
2018-Jun-16 23:21N 32°42' W 041°18'0 0.0 25.6
2018-Jun-16 23:10N 32°42' W 041°18'112.0 25.7
2018-Jun-16 23:07N 32°41' W 041°18'0 0.0 25.7
2018-Jun-16 22:33N 32°41' W 041°18'0 0.0 25.7
2018-Jun-16 22:27N 32°41' W 041°18'1 1.4 25.7
2018-Jun-16 22:06N 32°41' W 041°17'1 1.6 25.7
2018-Jun-16 21:43N 32°41' W 041°17'0 0.0 25.8
2018-Jun-16 21:31N 32°41' W 041°17'0 0.0 25.8
2018-Jun-16 20:48N 32°41' W 041°17'1 1.6 25.8
2018-Jun-16 20:25N 32°40' W 041°17'1 1.3 25.9
2018-Jun-16 19:58N 32°40' W 041°17'0 0.0 25.9
2018-Jun-16 19:07N 32°40' W 041°17'1 5.2 25.9
2018-Jun-16 18:58N 32°39' W 041°18'0 0.0 25.9
2018-Jun-16 17:27N 32°39' W 041°18'3 0.8 25.9
2018-Jun-16 13:37N 32°36' W 041°19'1 0.8 25.5
2018-Jun-16 12:58N 32°36' W 041°20'0 0.0 25.5
2018-Jun-16 12:54N 32°36' W 041°20'1 0.8 25.5
2018-Jun-16 11:55N 32°35' W 041°20'1 5.1 25.7
2018-Jun-16 11:49N 32°35' W 041°20'2 2.5 25.7
2018-Jun-16 11:10N 32°35' W 041°22'1 3.8 25.3
2018-Jun-16 10:51N 32°34' W 041°22'1 1.5 25.2
2018-Jun-16 10:19N 32°33' W 041°22'1 4.3 25.3
2018-Jun-16 10:12N 32°33' W 041°23'1 6.1 25.3
2018-Jun-16 10:07N 32°33' W 041°22'119.5 25.3
2018-Jun-16 10:03N 32°32' W 041°23'0 0.0 25.3
2018-Jun-16 09:21N 32°32' W 041°23'0 0.0 25.2
2018-Jun-16 09:16N 32°32' W 041°23'0 0.0
2018-Jun-16 09:09N 32°32' W 041°23'1 8.7 25.2
2018-Jun-16 09:00N 32°31' W 041°23'0 0.0 25.2
2018-Jun-16 08:33N 32°31' W 041°23'1 4.0 25.2
2018-Jun-16 08:24N 32°30' W 041°23'0 0.0 25.2
2018-Jun-16 07:46N 32°30' W 041°23'0 0.0 25.2
2018-Jun-16 07:42N 32°30' W 041°23'1 7.2 25.2
2018-Jun-16 07:37N 32°29' W 041°23'0 0.0 25.2
2018-Jun-16 06:51N 32°29' W 041°23'1 1.5 25.3
2018-Jun-16 06:04N 32°28' W 041°23'0 0.0 25.3
2018-Jun-16 06:01N 32°28' W 041°23'546.3 25.3
2018-Jun-16 05:54N 32°23' W 041°23'0 0.0 25.3
2018-Jun-16 01:15N 32°23' W 041°23'1 6.0 25.0
2018-Jun-16 01:09N 32°22' W 041°23'0 0.0 25.0
2018-Jun-16 00:36N 32°22' W 041°23'1 4.5 25.1
2018-Jun-16 00:28N 32°22' W 041°23'1 0.6 25.1
2018-Jun-15 23:36N 32°22' W 041°23'0 0.0 25.1
2018-Jun-15 23:33N 32°22' W 041°23'1 0.9 25.1
2018-Jun-15 22:54N 32°21' W 041°23'0 0.0 25.2
2018-Jun-15 22:48N 32°21' W 041°23'0 0.0 25.2
2018-Jun-15 22:30N 32°21' W 041°23'1 1.0 25.2
2018-Jun-15 21:55N 32°20' W 041°23'0 0.0 25.3
2018-Jun-15 21:51N 32°20' W 041°23'0 0.0 25.3
2018-Jun-15 21:49N 32°20' W 041°23'0 0.0 25.3
2018-Jun-15 21:19N 32°20' W 041°23'0 0.0 25.3
2018-Jun-15 20:52N 32°20' W 041°23'0 0.0 25.4
2018-Jun-15 20:51N 32°20' W 041°23'1 1.2 25.4
2018-Jun-15 20:12N 32°20' W 041°23'0 0.0 25.4
2018-Jun-15 19:36N 32°20' W 041°23'0 0.0 25.4
2018-Jun-15 19:19N 32°20' W 041°23'0 0.0 25.4
2018-Jun-15 19:10N 32°20' W 041°23'2 1.0 25.5
2018-Jun-15 17:39N 32°19' W 041°25'4 1.0 25.4
2018-Jun-15 13:57N 32°17' W 041°28'114.4 25.0
2018-Jun-15 13:52N 32°16' W 041°28'0 0.0 25.0
2018-Jun-15 13:18N 32°16' W 041°28'0 0.0 24.9
2018-Jun-15 13:15N 32°16' W 041°28'1 1.1 24.9
2018-Jun-15 12:13N 32°15' W 041°29'118.0 24.9
2018-Jun-15 12:09N 32°14' W 041°29'126.1 24.9
2018-Jun-15 12:06N 32°15' W 041°29'1 2.4 24.9
2018-Jun-15 11:34N 32°14' W 041°29'0 0.0 25.0
2018-Jun-15 11:31N 32°14' W 041°29'1 1.4 25.0
2018-Jun-15 10:34N 32°13' W 041°30'1 6.8 24.9
2018-Jun-15 10:25N 32°13' W 041°31'1 1.5 25.0
2018-Jun-15 09:33N 32°11' W 041°31'112.0 25.0
2018-Jun-15 09:30N 32°11' W 041°31'1 1.1 25.0
2018-Jun-15 09:03N 32°11' W 041°31'1 3.8 25.0
2018-Jun-15 08:55N 32°11' W 041°31'2 1.6 25.0
2018-Jun-15 07:55N 32°10' W 041°32'0 0.0 24.8
2018-Jun-15 07:52N 32°10' W 041°32'228.1 24.8
2018-Jun-15 07:48N 32°08' W 041°31'1 3.3 24.8
2018-Jun-15 07:24N 32°09' W 041°32'1 1.1 24.9
2018-Jun-15 06:10N 32°08' W 041°31'161.0 24.9
2018-Jun-15 06:09N 32°08' W 041°32'474.8 25.0
2018-Jun-15 06:06N 32°04' W 041°31'0 0.0 25.0
2018-Jun-15 01:34N 32°04' W 041°31'1 9.0 25.2
2018-Jun-15 01:30N 32°04' W 041°31'0 0.0 25.2
2018-Jun-15 00:55N 32°04' W 041°31'0 0.0 25.3
2018-Jun-15 00:48N 32°04' W 041°31'0 0.0 25.3
2018-Jun-14 23:54N 32°04' W 041°31'0 0.0
2018-Jun-14 23:52N 32°04' W 041°31'0 0.0 25.4
2018-Jun-14 23:48N 32°04' W 041°31'0 0.0 25.4
2018-Jun-14 23:45N 32°04' W 041°31'0 0.0 25.4
2018-Jun-14 23:10N 32°04' W 041°31'110.2 25.4
2018-Jun-14 23:07N 32°04' W 041°32'0 0.0 25.4
2018-Jun-14 22:54N 32°04' W 041°32'1 0.8 25.4
2018-Jun-14 22:10N 32°03' W 041°32'0 0.0 25.5
2018-Jun-14 22:07N 32°03' W 041°32'0 0.0 25.5
2018-Jun-14 21:51N 32°03' W 041°32'1 1.8 25.5
2018-Jun-14 21:12N 32°02' W 041°33'0 0.0 25.6
2018-Jun-14 20:24N 32°02' W 041°33'0 0.0 25.6
2018-Jun-14 20:10N 32°02' W 041°33'1 0.9 25.6
2018-Jun-14 19:36N 32°02' W 041°34'0 0.0 25.6
2018-Jun-14 19:25N 32°02' W 041°34'242.4
2018-Jun-14 19:22N 32°02' W 041°36'0 0.0 25.7
2018-Jun-14 17:49N 32°02' W 041°36'5 1.3 25.7
2018-Jun-14 14:15N 31°59' W 041°40'0 0.0 25.5
2018-Jun-14 13:37N 31°59' W 041°40'210.5 25.4
2018-Jun-14 13:28N 31°58' W 041°41'0 0.0 25.4
2018-Jun-14 12:39N 31°58' W 041°41'0 0.0 25.4
2018-Jun-14 12:34N 31°58' W 041°41'0 0.0 25.4
2018-Jun-14 12:28N 31°58' W 041°41'0 0.0 25.4
2018-Jun-14 12:21N 31°58' W 041°41'1 1.2 25.4
2018-Jun-14 11:51N 31°57' W 041°41'1 1.4 25.4
2018-Jun-14 10:55N 31°56' W 041°42'0 0.0 25.4
2018-Jun-14 10:46N 31°56' W 041°42'1 7.6 25.4
2018-Jun-14 10:42N 31°56' W 041°43'1 5.2 25.4
2018-Jun-14 10:33N 31°55' W 041°43'0 0.0 25.4
2018-Jun-14 09:57N 31°55' W 041°43'1 1.5 25.4
2018-Jun-14 09:33N 31°55' W 041°43'0 0.0 25.4
2018-Jun-14 09:30N 31°55' W 041°43'115.6 25.4
2018-Jun-14 09:25N 31°53' W 041°44'0 0.0 25.4
2018-Jun-14 08:15N 31°53' W 041°44'0 0.0 25.3
2018-Jun-14 08:10N 31°53' W 041°44'0 0.0
2018-Jun-14 08:06N 31°53' W 041°44'0 0.0 25.4
2018-Jun-14 08:03N 31°53' W 041°44'0 0.0 25.4
2018-Jun-14 07:54N 31°53' W 041°44'1 0.9 25.4
2018-Jun-14 06:25N 31°52' W 041°44'220.2 25.5
2018-Jun-14 06:18N 31°50' W 041°46'0 0.0 25.5
2018-Jun-14 01:54N 31°50' W 041°46'0 0.0 25.7
2018-Jun-14 01:10N 31°50' W 041°46'120.4
2018-Jun-14 01:07N 31°50' W 041°47'0 0.0 25.6
2018-Jun-14 00:18N 31°50' W 041°47'0 0.0 25.7
2018-Jun-14 00:09N 31°50' W 041°47'0 0.0 25.7
2018-Jun-13 23:58N 31°50' W 041°47'1 1.4 25.7
2018-Jun-13 23:36N 31°50' W 041°48'0 0.0 25.7
2018-Jun-13 23:33N 31°50' W 041°48'1 9.4 25.7
2018-Jun-13 23:28N 31°50' W 041°49'0 0.0 25.7
2018-Jun-13 22:37N 31°50' W 041°49'1 5.1 25.7
2018-Jun-13 22:31N 31°50' W 041°49'0 0.0 25.7
2018-Jun-13 22:25N 31°50' W 041°49'1 5.1
2018-Jun-13 22:19N 31°50' W 041°50'0 0.0 25.8
2018-Jun-13 22:10N 31°50' W 041°50'0 0.0 25.8
2018-Jun-13 21:42N 31°50' W 041°50'1 1.0 25.8
2018-Jun-13 20:39N 31°50' W 041°51'0 0.0
2018-Jun-13 20:37N 31°50' W 041°51'1 1.3 25.8
2018-Jun-13 20:00N 31°49' W 041°52'0 0.0 25.8
2018-Jun-13 19:42N 31°49' W 041°52'0 0.0 25.8
2018-Jun-13 19:39N 31°49' W 041°52'1 6.1 25.8
2018-Jun-13 19:34N 31°49' W 041°52'2 1.1 25.8
2018-Jun-13 18:01N 31°49' W 041°54'4 2.4 25.9
2018-Jun-13 16:16N 31°47' W 041°59'1 0.6 25.8
2018-Jun-13 13:58N 31°46' W 041°59'214.1 25.6
2018-Jun-13 13:51N 31°46' W 042°01'0 0.0 25.6
2018-Jun-13 13:00N 31°46' W 042°01'1 6.1 25.4
2018-Jun-13 12:55N 31°46' W 042°01'1 2.5 25.4
2018-Jun-13 12:36N 31°45' W 042°01'1 2.8 25.3
2018-Jun-13 12:25N 31°45' W 042°01'0 0.0
2018-Jun-13 12:21N 31°45' W 042°01'210.6 25.2
2018-Jun-13 12:10N 31°44' W 042°02'0 0.0 25.3
2018-Jun-13 11:18N 31°44' W 042°02'1 9.5
2018-Jun-13 11:13N 31°43' W 042°03'0 0.0 25.2
2018-Jun-13 10:57N 31°43' W 042°03'0 0.0 25.2
2018-Jun-13 10:54N 31°43' W 042°03'0 0.0 25.2
2018-Jun-13 10:46N 31°43' W 042°03'0 0.0 25.2
2018-Jun-13 10:22N 31°43' W 042°03'0 0.0 25.3
2018-Jun-13 10:19N 31°43' W 042°03'1 2.2 25.3
2018-Jun-13 10:03N 31°43' W 042°03'1 0.9 25.4
2018-Jun-13 09:10N 31°42' W 042°02'123.7
2018-Jun-13 09:07N 31°41' W 042°04'0 0.0 25.4
2018-Jun-13 08:46N 31°41' W 042°04'0 0.0 25.4
2018-Jun-13 08:25N 31°41' W 042°04'0 0.0 25.4
2018-Jun-13 08:19N 31°41' W 042°04'1 5.1 25.4
2018-Jun-13 08:13N 31°41' W 042°03'1 0.8 25.4
2018-Jun-13 06:40N 31°40' W 042°04'0 0.0 25.5
2018-Jun-13 06:39N 31°40' W 042°04'0 0.0 25.6
2018-Jun-13 06:36N 31°40' W 042°04'2 0.4 25.6
2018-Jun-13 00:36N 31°41' W 042°06'1 5.1 26.1
2018-Jun-13 00:30N 31°41' W 042°07'0 0.0 26.1
2018-Jun-13 00:07N 31°41' W 042°07'1 2.6 26.2
2018-Jun-12 23:55N 31°41' W 042°06'213.1
2018-Jun-12 23:48N 31°41' W 042°08'0 0.0 26.4
2018-Jun-12 22:55N 31°41' W 042°08'0 0.0 26.8
2018-Jun-12 22:48N 31°41' W 042°08'1 2.6 26.8
2018-Jun-12 22:24N 31°41' W 042°09'0 0.0 27.2
2018-Jun-12 22:16N 31°41' W 042°09'0 0.0 27.2
2018-Jun-12 22:09N 31°41' W 042°09'0 0.0
2018-Jun-12 22:06N 31°41' W 042°09'2 2.3 27.3
2018-Jun-12 21:10N 31°42' W 042°11'2 4.7
2018-Jun-12 20:49N 31°41' W 042°13'0 0.0 27.8
2018-Jun-12 19:51N 31°41' W 042°13'1 5.1 27.7
2018-Jun-12 19:45N 31°41' W 042°14'0 0.0 27.7
2018-Jun-12 19:31N 31°41' W 042°14'2 1.5 27.7
2018-Jun-12 18:10N 31°41' W 042°16'0 0.0
2018-Jun-12 18:09N 31°41' W 042°16'3 1.9 27.6
2018-Jun-12 16:30N 31°41' W 042°20'4 1.7 27.1
2018-Jun-12 14:16N 31°38' W 042°23'215.8 26.0
2018-Jun-12 14:10N 31°37' W 042°25'0 0.0
2018-Jun-12 13:21N 31°37' W 042°25'1 1.4 25.8
2018-Jun-12 12:46N 31°37' W 042°25'1 5.1 25.8
2018-Jun-12 12:40N 31°37' W 042°25'1 5.1 25.7
2018-Jun-12 12:34N 31°37' W 042°25'119.6 25.7
2018-Jun-12 12:30N 31°35' W 042°26'0 0.0 25.7
2018-Jun-12 11:39N 31°35' W 042°26'0 0.0 25.6
2018-Jun-12 11:33N 31°35' W 042°26'112.0 25.6
2018-Jun-12 11:30N 31°35' W 042°26'0 0.0 25.6
2018-Jun-12 11:06N 31°35' W 042°26'1 3.8 25.5
2018-Jun-12 10:58N 31°35' W 042°26'0 0.0 25.5
2018-Jun-12 10:55N 31°35' W 042°26'1 7.7
2018-Jun-12 10:51N 31°35' W 042°26'115.3
2018-Jun-12 10:49N 31°35' W 042°26'1 4.3 25.5
2018-Jun-12 10:31N 31°34' W 042°26'0 0.0 25.5
2018-Jun-12 09:25N 31°34' W 042°26'1 7.9 25.3
2018-Jun-12 09:19N 31°33' W 042°26'0 0.0 25.3
2018-Jun-12 09:09N 31°33' W 042°26'0 0.0 25.4
2018-Jun-12 08:55N 31°33' W 042°26'1 5.1 25.3
2018-Jun-12 08:48N 31°32' W 042°26'0 0.0 25.3
2018-Jun-12 08:31N 31°32' W 042°26'1 4.0 25.3
2018-Jun-12 08:22N 31°32' W 042°26'0 0.0 25.3
2018-Jun-12 07:16N 31°32' W 042°26'1 1.3 25.3
2018-Jun-12 06:52N 31°32' W 042°26'1 4.4 25.3
2018-Jun-12 06:45N 31°32' W 042°26'237.4 25.3
2018-Jun-12 06:42N 31°34' W 042°27'0 0.0 25.3
2018-Jun-12 06:39N 31°34' W 042°27'0 0.0 25.3
2018-Jun-12 00:55N 31°34' W 042°27'0 0.0 25.5
2018-Jun-12 00:52N 31°34' W 042°27'   25.5
Track history (hours):
 
Tides and Currents Weather Stations Pressure Air Temp Water Temp Dewpoint Dewpoint Depression Visibility Wind Speed Wind Dir Waves Ship Positions

Drifting buoy 13624

Last reported at 2018-Jun-22 00:52 UTC. Time now 2018-Jun-22 01:58 UTC.
Position N 33°55' W 041°05'.

Water temperature 25.2 ° C

Date/timePositionNaut miles runAvg speedWind from/ knotsBaromVisibWave heightAir tempDewpointWater temp
2018-Jun-22 00:52N 33°55' W 041°05'0 0.0 25.2
2018-Jun-22 00:49N 33°55' W 041°05'0 7.5 25.2
2018-Jun-22 00:45N 33°55' W 041°05'0 0.0 25.2
2018-Jun-22 00:12N 33°55' W 041°05'0 0.0 25.2
2018-Jun-22 00:10N 33°55' W 041°05'0 0.0 25.2
2018-Jun-22 00:04N 33°55' W 041°05'0 0.0 25.2
2018-Jun-22 00:03N 33°55' W 041°05'0 0.0 25.2
2018-Jun-21 23:58N 33°55' W 041°05'0 0.0 25.2
2018-Jun-21 23:12N 33°55' W 041°05'1 6.0 25.2
2018-Jun-21 23:06N 33°54' W 041°05'1 7.2 25.2
2018-Jun-21 23:01N 33°55' W 041°05'0 0.0 25.2
2018-Jun-21 22:25N 33°55' W 041°05'110.0 25.2
2018-Jun-21 22:19N 33°55' W 041°04'0 0.8 25.2
2018-Jun-21 21:40N 33°55' W 041°04'0 0.0 25.2
2018-Jun-21 21:37N 33°55' W 041°04'0 0.0 25.2
2018-Jun-21 21:31N 33°55' W 041°04'0 0.6 25.2
2018-Jun-21 20:40N 33°55' W 041°05'0 0.8 25.3
2018-Jun-21 20:01N 33°55' W 041°05'0 0.0 25.4
2018-Jun-21 19:48N 33°55' W 041°05'110.0 25.4
2018-Jun-21 19:42N 33°55' W 041°07'0 0.0 25.4
2018-Jun-21 18:10N 33°55' W 041°07'0 0.0 25.5
2018-Jun-21 18:06N 33°55' W 041°07'1 0.9 25.5
2018-Jun-21 16:25N 33°55' W 041°08'3 1.5 25.4
2018-Jun-21 14:30N 33°52' W 041°10'1 0.8 25.3
2018-Jun-21 13:34N 33°52' W 041°11'0 0.0 25.1
2018-Jun-21 12:54N 33°52' W 041°11'0 0.0 25.1
2018-Jun-21 12:49N 33°52' W 041°11'1 7.8 25.1
2018-Jun-21 12:43N 33°51' W 041°11'136.0 25.1
2018-Jun-21 12:42N 33°52' W 041°11'1 6.0 25.1
2018-Jun-21 12:36N 33°51' W 041°11'0 0.0 25.1
2018-Jun-21 11:58N 33°51' W 041°11'0 0.0 25.1
2018-Jun-21 11:51N 33°51' W 041°11'0 0.0 25.1
2018-Jun-21 11:46N 33°51' W 041°11'146.8 25.1
2018-Jun-21 11:45N 33°50' W 041°12'1 0.9 25.1
2018-Jun-21 11:03N 33°50' W 041°12'0 3.7 25.1
2018-Jun-21 10:55N 33°50' W 041°13'136.0
2018-Jun-21 10:54N 33°49' W 041°13'0 0.0 25.0
2018-Jun-21 10:19N 33°49' W 041°13'1 1.3 25.0
2018-Jun-21 09:19N 33°48' W 041°12'0 0.0 24.9
2018-Jun-21 09:16N 33°48' W 041°12'1 6.7 24.9
2018-Jun-21 09:09N 33°47' W 041°13'0 1.2 24.9
2018-Jun-21 08:45N 33°47' W 041°12'0 3.7 24.9
2018-Jun-21 08:37N 33°47' W 041°13'0 0.0 24.9
2018-Jun-21 08:27N 33°47' W 041°13'1 5.9 24.9
2018-Jun-21 08:19N 33°47' W 041°12'0 0.0 24.9
2018-Jun-21 08:16N 33°47' W 041°12'0 0.0 24.9
2018-Jun-21 07:37N 33°47' W 041°12'1 0.6 24.9
2018-Jun-21 06:40N 33°46' W 041°12'029.9 24.9
2018-Jun-21 06:39N 33°46' W 041°11'1 0.1 24.9
2018-Jun-21 01:12N 33°46' W 041°11'0 0.0 24.8
2018-Jun-21 01:04N 33°46' W 041°11'0 0.8 24.8
2018-Jun-21 00:25N 33°46' W 041°11'1 4.0 24.8
2018-Jun-21 00:16N 33°45' W 041°11'0 7.5 24.8
2018-Jun-21 00:12N 33°45' W 041°11'0 0.0 24.8
2018-Jun-20 23:33N 33°45' W 041°11'0 0.0 24.8
2018-Jun-20 23:25N 33°45' W 041°11'0 0.7 24.8
2018-Jun-20 22:45N 33°45' W 041°11'010.0 24.8
2018-Jun-20 22:42N 33°45' W 041°12'0 0.0 24.8
2018-Jun-20 22:37N 33°45' W 041°12'0 5.0 24.8
2018-Jun-20 22:31N 33°45' W 041°11'0 0.0 24.8
2018-Jun-20 22:06N 33°45' W 041°11'0 6.0 24.8
2018-Jun-20 22:01N 33°45' W 041°12'0 0.0 24.8
2018-Jun-20 20:55N 33°45' W 041°12'0 0.0
2018-Jun-20 20:54N 33°45' W 041°12'1 1.5 24.9
2018-Jun-20 20:22N 33°44' W 041°13'0 0.0 24.9
2018-Jun-20 20:01N 33°44' W 041°13'217.6 24.9
2018-Jun-20 19:54N 33°43' W 041°14'0 0.0 24.9
2018-Jun-20 18:22N 33°43' W 041°14'0 0.0 24.9
2018-Jun-20 18:16N 33°43' W 041°14'3 1.8 24.9
2018-Jun-20 16:37N 33°40' W 041°14'0 0.0 24.9
2018-Jun-20 13:54N 33°40' W 041°14'0 0.0 24.8
2018-Jun-20 13:51N 33°40' W 041°14'112.0 24.8
2018-Jun-20 13:48N 33°39' W 041°14'0 0.0 24.8
2018-Jun-20 13:15N 33°39' W 041°14'0 0.0 24.8
2018-Jun-20 13:10N 33°39' W 041°14'0 0.0 24.8
2018-Jun-20 12:52N 33°39' W 041°14'0 7.5 24.7
2018-Jun-20 12:48N 33°39' W 041°14'0 0.0 24.7
2018-Jun-20 12:12N 33°39' W 041°14'0 0.0 24.7
2018-Jun-20 12:09N 33°39' W 041°14'112.0 24.7
2018-Jun-20 12:06N 33°38' W 041°14'0 0.0 24.7
2018-Jun-20 11:31N 33°38' W 041°14'0 0.0 24.6
2018-Jun-20 11:25N 33°38' W 041°14'0 2.0 24.6
2018-Jun-20 11:10N 33°38' W 041°14'0 0.0 24.6
2018-Jun-20 11:04N 33°38' W 041°14'0 0.0 24.6
2018-Jun-20 10:49N 33°38' W 041°14'1 0.7 24.6
2018-Jun-20 09:46N 33°38' W 041°14'010.0 24.6
2018-Jun-20 09:43N 33°38' W 041°14'0 7.5 24.6
2018-Jun-20 09:39N 33°38' W 041°14'0 0.0 24.6
2018-Jun-20 09:31N 33°38' W 041°14'0 0.0 24.6
2018-Jun-20 09:27N 33°38' W 041°14'0 0.0 24.6
2018-Jun-20 08:39N 33°38' W 041°14'1 7.8 24.6
2018-Jun-20 08:33N 33°37' W 041°14'0 0.0 24.6
2018-Jun-20 08:28N 33°37' W 041°14'1 2.2 24.6
2018-Jun-20 08:07N 33°38' W 041°14'1 0.7 24.7
2018-Jun-20 07:00N 33°37' W 041°14'0 0.0 24.7
2018-Jun-20 06:55N 33°37' W 041°14'0 0.0 24.7
2018-Jun-20 06:48N 33°37' W 041°14'0 0.0 24.7
2018-Jun-20 06:25N 33°37' W 041°14'2 1.5 24.7
2018-Jun-20 05:10N 33°35' W 041°15'0 0.0 24.7
2018-Jun-20 01:31N 33°35' W 041°15'1 6.0 24.7
2018-Jun-20 01:25N 33°36' W 041°15'0 0.0 24.7
2018-Jun-20 00:52N 33°36' W 041°15'0 0.0 24.7
2018-Jun-20 00:45N 33°36' W 041°15'1 3.5 24.7
2018-Jun-20 00:25N 33°35' W 041°16'0 0.0 24.7
2018-Jun-19 23:54N 33°35' W 041°16'0 0.0 24.7
2018-Jun-19 23:49N 33°35' W 041°16'0 7.5 24.7
2018-Jun-19 23:45N 33°35' W 041°16'0 0.0 24.7
2018-Jun-19 23:10N 33°35' W 041°16'136.0 24.7
2018-Jun-19 23:09N 33°35' W 041°16'0 5.0 24.8
2018-Jun-19 23:03N 33°35' W 041°16'0 0.0 24.8
2018-Jun-19 22:49N 33°35' W 041°16'0 0.0 24.8
2018-Jun-19 22:30N 33°35' W 041°16'112.0 24.8
2018-Jun-19 22:27N 33°34' W 041°16'1 2.6 24.8
2018-Jun-19 22:13N 33°35' W 041°16'1 6.0 24.8
2018-Jun-19 22:07N 33°34' W 041°16'0 0.0 24.8
2018-Jun-19 22:04N 33°34' W 041°16'0 0.0 24.8
2018-Jun-19 21:07N 33°34' W 041°16'0 0.0 24.9
2018-Jun-19 20:55N 33°34' W 041°16'1 0.8 24.9
2018-Jun-19 20:12N 33°34' W 041°16'0 0.0 25.0
2018-Jun-19 20:04N 33°34' W 041°16'0 0.0 25.0
2018-Jun-19 19:09N 33°34' W 041°16'0 0.0 25.1
2018-Jun-19 18:33N 33°34' W 041°16'0 0.0 25.1
2018-Jun-19 18:24N 33°34' W 041°16'1 0.5 25.1
2018-Jun-19 16:51N 33°33' W 041°17'1 0.4 25.2
2018-Jun-19 14:13N 33°32' W 041°18'130.0 25.2
2018-Jun-19 14:12N 33°32' W 041°17'0 0.0 25.2
2018-Jun-19 13:36N 33°32' W 041°17'115.6 25.2
2018-Jun-19 13:33N 33°32' W 041°18'0 0.0 25.2
2018-Jun-19 13:04N 33°32' W 041°18'0 0.0 25.1
2018-Jun-19 13:00N 33°32' W 041°18'0 0.0 25.1
2018-Jun-19 12:34N 33°32' W 041°18'0 0.0 25.1
2018-Jun-19 12:31N 33°32' W 041°18'110.0 25.1
2018-Jun-19 12:28N 33°32' W 041°17'110.0 25.1
2018-Jun-19 12:25N 33°32' W 041°18'0 0.0 25.1
2018-Jun-19 11:52N 33°32' W 041°18'0 0.0 25.1
2018-Jun-19 11:48N 33°32' W 041°18'1 1.1 25.1
2018-Jun-19 11:21N 33°32' W 041°19'1 3.3 25.1
2018-Jun-19 11:10N 33°31' W 041°19'1 1.9 25.1
2018-Jun-19 10:54N 33°31' W 041°18'1 7.8 25.1
2018-Jun-19 10:48N 33°31' W 041°19'0 0.0 25.1
2018-Jun-19 10:13N 33°31' W 041°19'1 1.3 25.1
2018-Jun-19 09:45N 33°31' W 041°19'1 5.9 25.1
2018-Jun-19 09:37N 33°31' W 041°19'0 0.0 25.1
2018-Jun-19 08:49N 33°31' W 041°19'0 0.0 25.1
2018-Jun-19 08:46N 33°31' W 041°19'1 7.8 25.1
2018-Jun-19 08:40N 33°30' W 041°20'146.9 25.1
2018-Jun-19 08:39N 33°31' W 041°19'1 5.2 25.1
2018-Jun-19 08:30N 33°30' W 041°20'0 0.0 25.1
2018-Jun-19 07:10N 33°30' W 041°20'0 0.0 25.1
2018-Jun-19 07:07N 33°30' W 041°20'212.5 25.1
2018-Jun-19 06:58N 33°28' W 041°20'0 0.0 25.1
2018-Jun-19 05:27N 33°28' W 041°20'224.5 25.0
2018-Jun-19 05:21N 33°26' W 041°21'0 0.0 25.0
2018-Jun-19 01:10N 33°26' W 041°21'112.0 25.2
2018-Jun-19 01:04N 33°25' W 041°21'0 0.0 25.2
2018-Jun-19 00:15N 33°25' W 041°21'0 0.0 25.2
2018-Jun-19 00:06N 33°25' W 041°21'0 0.0 25.2
2018-Jun-18 23:31N 33°25' W 041°21'0 0.0 25.2
2018-Jun-18 23:27N 33°25' W 041°21'0 0.0 25.2
2018-Jun-18 23:24N 33°25' W 041°21'1 2.0 25.2
2018-Jun-18 23:01N 33°24' W 041°22'110.0 25.2
2018-Jun-18 22:58N 33°24' W 041°21'1 5.0 25.2
2018-Jun-18 22:52N 33°24' W 041°22'1 1.7 25.2
2018-Jun-18 22:34N 33°24' W 041°21'1 0.7 25.2
2018-Jun-18 21:25N 33°23' W 041°20'1 7.5 25.2
2018-Jun-18 21:21N 33°23' W 041°21'0 0.0 25.2
2018-Jun-18 21:16N 33°23' W 041°21'1 0.7 25.2
2018-Jun-18 20:22N 33°23' W 041°21'1 0.9 25.3
2018-Jun-18 19:43N 33°23' W 041°21'0 0.0 25.3
2018-Jun-18 19:36N 33°23' W 041°21'1 1.4 25.3
2018-Jun-18 18:40N 33°22' W 041°22'228.0 25.3
2018-Jun-18 18:36N 33°20' W 041°22'1 0.3 25.4
2018-Jun-18 17:01N 33°20' W 041°22'3 0.8 25.4
2018-Jun-18 13:55N 33°18' W 041°20'110.0 25.3
2018-Jun-18 13:48N 33°17' W 041°19'0 0.0 25.3
2018-Jun-18 13:12N 33°17' W 041°19'0 0.0 25.3
2018-Jun-18 12:57N 33°17' W 041°19'1 0.7 25.3
2018-Jun-18 12:13N 33°17' W 041°20'0 0.0 25.3
2018-Jun-18 12:10N 33°17' W 041°20'0 0.0 25.3
2018-Jun-18 12:07N 33°17' W 041°20'0 0.0 25.3
2018-Jun-18 11:37N 33°17' W 041°20'0 0.0 25.3
2018-Jun-18 11:34N 33°17' W 041°20'136.0 25.3
2018-Jun-18 11:33N 33°17' W 041°20'0 0.0 25.3
2018-Jun-18 11:15N 33°17' W 041°20'0 0.0 25.3
2018-Jun-18 11:12N 33°17' W 041°20'112.0 25.3
2018-Jun-18 11:09N 33°16' W 041°20'0 0.0 25.3
2018-Jun-18 09:55N 33°16' W 041°20'0 0.0 25.2
2018-Jun-18 09:51N 33°16' W 041°20'0 0.0 25.2
2018-Jun-18 09:09N 33°16' W 041°20'0 0.0 25.2
2018-Jun-18 09:01N 33°16' W 041°20'0 0.0 25.2
2018-Jun-18 09:00N 33°16' W 041°20'1 4.5 25.2
2018-Jun-18 08:52N 33°16' W 041°20'0 0.0 25.2
2018-Jun-18 08:15N 33°16' W 041°20'1 0.8 25.2
2018-Jun-18 07:30N 33°15' W 041°20'1 7.5 25.2
2018-Jun-18 07:22N 33°15' W 041°21'0 0.0 25.2
2018-Jun-18 07:19N 33°15' W 041°21'212.5 25.2
2018-Jun-18 07:10N 33°13' W 041°20'0 0.0
2018-Jun-18 05:37N 33°13' W 041°20'463.4 25.3
2018-Jun-18 05:33N 33°09' W 041°21'0 0.0 25.3
2018-Jun-18 01:30N 33°09' W 041°21'115.7 25.4
2018-Jun-18 01:27N 33°08' W 041°20'1 0.7 25.4
2018-Jun-18 00:36N 33°08' W 041°20'1 5.2 25.4
2018-Jun-18 00:27N 33°07' W 041°20'0 0.0 25.4
2018-Jun-17 23:55N 33°07' W 041°20'0 0.0 25.4
2018-Jun-17 23:49N 33°07' W 041°20'1 1.0 25.4
2018-Jun-17 23:13N 33°07' W 041°20'0 0.0 25.4
2018-Jun-17 22:55N 33°07' W 041°20'110.3 25.4
2018-Jun-17 22:48N 33°05' W 041°20'0 0.0 25.4
2018-Jun-17 22:13N 33°05' W 041°20'0 0.0 25.4
2018-Jun-17 21:57N 33°05' W 041°20'1 2.0 25.4
2018-Jun-17 21:42N 33°05' W 041°19'1 5.2 25.4
2018-Jun-17 21:33N 33°05' W 041°20'1 1.3 25.4
2018-Jun-17 20:31N 33°04' W 041°19'0 0.0 25.4
2018-Jun-17 20:16N 33°04' W 041°19'1 2.0 25.4
2018-Jun-17 20:01N 33°04' W 041°20'2 1.4 25.4
2018-Jun-17 18:55N 33°02' W 041°19'0 0.0 25.5
2018-Jun-17 18:48N 33°02' W 041°19'2 1.2 25.5
2018-Jun-17 17:15N 33°01' W 041°19'0 0.0 25.4
2018-Jun-17 17:10N 33°01' W 041°19'3 0.9 25.4
2018-Jun-17 14:15N 32°58' W 041°17'1 9.0 25.4
2018-Jun-17 14:07N 32°57' W 041°17'0 0.0 25.4
2018-Jun-17 13:18N 32°57' W 041°17'1 0.9 25.4
2018-Jun-17 12:37N 32°56' W 041°17'0 0.0 25.3
2018-Jun-17 12:31N 32°56' W 041°17'0 0.0 25.3
2018-Jun-17 12:27N 32°56' W 041°17'0 0.0 25.3
2018-Jun-17 11:51N 32°56' W 041°17'0 0.0 25.3
2018-Jun-17 11:46N 32°56' W 041°17'0 0.0 25.3
2018-Jun-17 11:40N 32°56' W 041°17'1 6.0 25.2
2018-Jun-17 11:34N 32°56' W 041°17'0 0.0 25.2
2018-Jun-17 11:30N 32°56' W 041°17'1 0.9 25.2
2018-Jun-17 10:52N 32°55' W 041°17'0 0.0 25.2
2018-Jun-17 10:22N 32°55' W 041°17'0 0.0 25.2
2018-Jun-17 10:19N 32°55' W 041°17'0 0.0 25.2
2018-Jun-17 10:07N 32°55' W 041°17'1 5.1 25.2
2018-Jun-17 10:00N 32°55' W 041°17'1 1.5 25.2
2018-Jun-17 09:40N 32°55' W 041°18'110.1 25.2
2018-Jun-17 09:37N 32°55' W 041°17'1 7.6 25.2
2018-Jun-17 09:33N 32°55' W 041°18'0 0.0 25.2
2018-Jun-17 09:10N 32°55' W 041°18'110.1 25.2
2018-Jun-17 09:07N 32°55' W 041°17'112.0 25.2
2018-Jun-17 09:04N 32°54' W 041°17'0 0.0 25.2
2018-Jun-17 08:43N 32°54' W 041°17'1 6.7 25.2
2018-Jun-17 08:36N 32°53' W 041°18'0 0.0 25.2
2018-Jun-17 08:01N 32°53' W 041°18'1 1.7 25.2
2018-Jun-17 07:34N 32°53' W 041°19'0 0.0 25.2
2018-Jun-17 07:28N 32°53' W 041°19'112.0 25.2
2018-Jun-17 07:22N 32°52' W 041°19'0 0.0 25.2
2018-Jun-17 06:19N 32°52' W 041°19'1 2.6 25.3
2018-Jun-17 05:51N 32°50' W 041°19'766.2 25.3
2018-Jun-17 05:45N 32°44' W 041°19'0 0.0 25.3
2018-Jun-17 00:54N 32°44' W 041°19'1 7.8 25.6
2018-Jun-17 00:48N 32°43' W 041°19'0 0.0 25.6
2018-Jun-17 00:16N 32°43' W 041°19'0 0.0 25.6
2018-Jun-17 00:13N 32°43' W 041°19'1 5.0 25.6
2018-Jun-17 00:07N 32°43' W 041°18'1 1.7 25.6
2018-Jun-16 23:24N 32°42' W 041°18'0 0.0 25.6
2018-Jun-16 23:21N 32°42' W 041°18'0 0.0 25.6
2018-Jun-16 23:10N 32°42' W 041°18'112.0 25.7
2018-Jun-16 23:07N 32°41' W 041°18'0 0.0 25.7
2018-Jun-16 22:33N 32°41' W 041°18'0 0.0 25.7
2018-Jun-16 22:27N 32°41' W 041°18'1 1.4 25.7
2018-Jun-16 22:06N 32°41' W 041°17'1 1.6 25.7
2018-Jun-16 21:43N 32°41' W 041°17'0 0.0 25.8
2018-Jun-16 21:31N 32°41' W 041°17'0 0.0 25.8
2018-Jun-16 20:48N 32°41' W 041°17'1 1.6 25.8
2018-Jun-16 20:25N 32°40' W 041°17'1 1.3 25.9
2018-Jun-16 19:58N 32°40' W 041°17'0 0.0 25.9
2018-Jun-16 19:07N 32°40' W 041°17'1 5.2 25.9
2018-Jun-16 18:58N 32°39' W 041°18'0 0.0 25.9
2018-Jun-16 17:27N 32°39' W 041°18'3 0.8 25.9
2018-Jun-16 13:37N 32°36' W 041°19'1 0.8 25.5
2018-Jun-16 12:58N 32°36' W 041°20'0 0.0 25.5
2018-Jun-16 12:54N 32°36' W 041°20'1 0.8 25.5
2018-Jun-16 11:55N 32°35' W 041°20'1 5.1 25.7
2018-Jun-16 11:49N 32°35' W 041°20'2 2.5 25.7
2018-Jun-16 11:10N 32°35' W 041°22'1 3.8 25.3
2018-Jun-16 10:51N 32°34' W 041°22'1 1.5 25.2
2018-Jun-16 10:19N 32°33' W 041°22'1 4.3 25.3
2018-Jun-16 10:12N 32°33' W 041°23'1 6.1 25.3
2018-Jun-16 10:07N 32°33' W 041°22'119.5 25.3
2018-Jun-16 10:03N 32°32' W 041°23'0 0.0 25.3
2018-Jun-16 09:21N 32°32' W 041°23'0 0.0 25.2
2018-Jun-16 09:16N 32°32' W 041°23'0 0.0
2018-Jun-16 09:09N 32°32' W 041°23'1 8.7 25.2
2018-Jun-16 09:00N 32°31' W 041°23'0 0.0 25.2
2018-Jun-16 08:33N 32°31' W 041°23'1 4.0 25.2
2018-Jun-16 08:24N 32°30' W 041°23'0 0.0 25.2
2018-Jun-16 07:46N 32°30' W 041°23'0 0.0 25.2
2018-Jun-16 07:42N 32°30' W 041°23'1 7.2 25.2
2018-Jun-16 07:37N 32°29' W 041°23'0 0.0 25.2
2018-Jun-16 06:51N 32°29' W 041°23'1 1.5 25.3
2018-Jun-16 06:04N 32°28' W 041°23'0 0.0 25.3
2018-Jun-16 06:01N 32°28' W 041°23'546.3 25.3
2018-Jun-16 05:54N 32°23' W 041°23'0 0.0 25.3
2018-Jun-16 01:15N 32°23' W 041°23'1 6.0 25.0
2018-Jun-16 01:09N 32°22' W 041°23'0 0.0 25.0
2018-Jun-16 00:36N 32°22' W 041°23'1 4.5 25.1
2018-Jun-16 00:28N 32°22' W 041°23'1 0.6 25.1
2018-Jun-15 23:36N 32°22' W 041°23'0 0.0 25.1
2018-Jun-15 23:33N 32°22' W 041°23'1 0.9 25.1
2018-Jun-15 22:54N 32°21' W 041°23'0 0.0 25.2
2018-Jun-15 22:48N 32°21' W 041°23'0 0.0 25.2
2018-Jun-15 22:30N 32°21' W 041°23'1 1.0 25.2
2018-Jun-15 21:55N 32°20' W 041°23'0 0.0 25.3
2018-Jun-15 21:51N 32°20' W 041°23'0 0.0 25.3
2018-Jun-15 21:49N 32°20' W 041°23'0 0.0 25.3
2018-Jun-15 21:19N 32°20' W 041°23'0 0.0 25.3
2018-Jun-15 20:52N 32°20' W 041°23'0 0.0 25.4
2018-Jun-15 20:51N 32°20' W 041°23'1 1.2 25.4
2018-Jun-15 20:12N 32°20' W 041°23'0 0.0 25.4
2018-Jun-15 19:36N 32°20' W 041°23'0 0.0 25.4
2018-Jun-15 19:19N 32°20' W 041°23'0 0.0 25.4
2018-Jun-15 19:10N 32°20' W 041°23'2 1.0 25.5
2018-Jun-15 17:39N 32°19' W 041°25'4 1.0 25.4
2018-Jun-15 13:57N 32°17' W 041°28'114.4 25.0
2018-Jun-15 13:52N 32°16' W 041°28'0 0.0 25.0
2018-Jun-15 13:18N 32°16' W 041°28'0 0.0 24.9
2018-Jun-15 13:15N 32°16' W 041°28'1 1.1 24.9
2018-Jun-15 12:13N 32°15' W 041°29'118.0 24.9
2018-Jun-15 12:09N 32°14' W 041°29'126.1 24.9
2018-Jun-15 12:06N 32°15' W 041°29'1 2.4 24.9
2018-Jun-15 11:34N 32°14' W 041°29'0 0.0 25.0
2018-Jun-15 11:31N 32°14' W 041°29'1 1.4 25.0
2018-Jun-15 10:34N 32°13' W 041°30'1 6.8 24.9
2018-Jun-15 10:25N 32°13' W 041°31'1 1.5 25.0
2018-Jun-15 09:33N 32°11' W 041°31'112.0 25.0
2018-Jun-15 09:30N 32°11' W 041°31'1 1.1 25.0
2018-Jun-15 09:03N 32°11' W 041°31'1 3.8 25.0
2018-Jun-15 08:55N 32°11' W 041°31'2 1.6 25.0
2018-Jun-15 07:55N 32°10' W 041°32'0 0.0 24.8
2018-Jun-15 07:52N 32°10' W 041°32'228.1 24.8
2018-Jun-15 07:48N 32°08' W 041°31'1 3.3 24.8
2018-Jun-15 07:24N 32°09' W 041°32'1 1.1 24.9
2018-Jun-15 06:10N 32°08' W 041°31'161.0 24.9
2018-Jun-15 06:09N 32°08' W 041°32'474.8 25.0
2018-Jun-15 06:06N 32°04' W 041°31'0 0.0 25.0
2018-Jun-15 01:34N 32°04' W 041°31'1 9.0 25.2
2018-Jun-15 01:30N 32°04' W 041°31'0 0.0 25.2
2018-Jun-15 00:55N 32°04' W 041°31'0 0.0 25.3
2018-Jun-15 00:48N 32°04' W 041°31'0 0.0 25.3
2018-Jun-14 23:54N 32°04' W 041°31'0 0.0
2018-Jun-14 23:52N 32°04' W 041°31'0 0.0 25.4
2018-Jun-14 23:48N 32°04' W 041°31'0 0.0 25.4
2018-Jun-14 23:45N 32°04' W 041°31'0 0.0 25.4
2018-Jun-14 23:10N 32°04' W 041°31'110.2 25.4
2018-Jun-14 23:07N 32°04' W 041°32'0 0.0 25.4
2018-Jun-14 22:54N 32°04' W 041°32'1 0.8 25.4
2018-Jun-14 22:10N 32°03' W 041°32'0 0.0 25.5
2018-Jun-14 22:07N 32°03' W 041°32'0 0.0 25.5
2018-Jun-14 21:51N 32°03' W 041°32'1 1.8 25.5
2018-Jun-14 21:12N 32°02' W 041°33'0 0.0 25.6
2018-Jun-14 20:24N 32°02' W 041°33'0 0.0 25.6
2018-Jun-14 20:10N 32°02' W 041°33'1 0.9 25.6
2018-Jun-14 19:36N 32°02' W 041°34'0 0.0 25.6
2018-Jun-14 19:25N 32°02' W 041°34'242.4
2018-Jun-14 19:22N 32°02' W 041°36'0 0.0 25.7
2018-Jun-14 17:49N 32°02' W 041°36'5 1.3 25.7
2018-Jun-14 14:15N 31°59' W 041°40'0 0.0 25.5
2018-Jun-14 13:37N 31°59' W 041°40'210.5 25.4
2018-Jun-14 13:28N 31°58' W 041°41'0 0.0 25.4
2018-Jun-14 12:39N 31°58' W 041°41'0 0.0 25.4
2018-Jun-14 12:34N 31°58' W 041°41'0 0.0 25.4
2018-Jun-14 12:28N 31°58' W 041°41'0 0.0 25.4
2018-Jun-14 12:21N 31°58' W 041°41'1 1.2 25.4
2018-Jun-14 11:51N 31°57' W 041°41'1 1.4 25.4
2018-Jun-14 10:55N 31°56' W 041°42'0 0.0 25.4
2018-Jun-14 10:46N 31°56' W 041°42'1 7.6 25.4
2018-Jun-14 10:42N 31°56' W 041°43'1 5.2 25.4
2018-Jun-14 10:33N 31°55' W 041°43'0 0.0 25.4
2018-Jun-14 09:57N 31°55' W 041°43'1 1.5 25.4
2018-Jun-14 09:33N 31°55' W 041°43'0 0.0 25.4
2018-Jun-14 09:30N 31°55' W 041°43'115.6 25.4
2018-Jun-14 09:25N 31°53' W 041°44'0 0.0 25.4
2018-Jun-14 08:15N 31°53' W 041°44'0 0.0 25.3
2018-Jun-14 08:10N 31°53' W 041°44'0 0.0
2018-Jun-14 08:06N 31°53' W 041°44'0 0.0 25.4
2018-Jun-14 08:03N 31°53' W 041°44'0 0.0 25.4
2018-Jun-14 07:54N 31°53' W 041°44'1 0.9 25.4
2018-Jun-14 06:25N 31°52' W 041°44'220.2 25.5
2018-Jun-14 06:18N 31°50' W 041°46'0 0.0 25.5
2018-Jun-14 01:54N 31°50' W 041°46'0 0.0 25.7
2018-Jun-14 01:10N 31°50' W 041°46'120.4
2018-Jun-14 01:07N 31°50' W 041°47'0 0.0 25.6
2018-Jun-14 00:18N 31°50' W 041°47'0 0.0 25.7
2018-Jun-14 00:09N 31°50' W 041°47'0 0.0 25.7
2018-Jun-13 23:58N 31°50' W 041°47'1 1.4 25.7
2018-Jun-13 23:36N 31°50' W 041°48'0 0.0 25.7
2018-Jun-13 23:33N 31°50' W 041°48'1 9.4 25.7
2018-Jun-13 23:28N 31°50' W 041°49'0 0.0 25.7
2018-Jun-13 22:37N 31°50' W 041°49'1 5.1 25.7
2018-Jun-13 22:31N 31°50' W 041°49'0 0.0 25.7
2018-Jun-13 22:25N 31°50' W 041°49'1 5.1
2018-Jun-13 22:19N 31°50' W 041°50'0 0.0 25.8
2018-Jun-13 22:10N 31°50' W 041°50'0 0.0 25.8
2018-Jun-13 21:42N 31°50' W 041°50'1 1.0 25.8
2018-Jun-13 20:39N 31°50' W 041°51'0 0.0
2018-Jun-13 20:37N 31°50' W 041°51'1 1.3 25.8
2018-Jun-13 20:00N 31°49' W 041°52'0 0.0 25.8
2018-Jun-13 19:42N 31°49' W 041°52'0 0.0 25.8
2018-Jun-13 19:39N 31°49' W 041°52'1 6.1 25.8
2018-Jun-13 19:34N 31°49' W 041°52'2 1.1 25.8
2018-Jun-13 18:01N 31°49' W 041°54'4 2.4 25.9
2018-Jun-13 16:16N 31°47' W 041°59'1 0.6 25.8
2018-Jun-13 13:58N 31°46' W 041°59'214.1 25.6
2018-Jun-13 13:51N 31°46' W 042°01'0 0.0 25.6
2018-Jun-13 13:00N 31°46' W 042°01'1 6.1 25.4
2018-Jun-13 12:55N 31°46' W 042°01'1 2.5 25.4
2018-Jun-13 12:36N 31°45' W 042°01'1 2.8 25.3
2018-Jun-13 12:25N 31°45' W 042°01'0 0.0
2018-Jun-13 12:21N 31°45' W 042°01'210.6 25.2
2018-Jun-13 12:10N 31°44' W 042°02'0 0.0 25.3
2018-Jun-13 11:18N 31°44' W 042°02'1 9.5
2018-Jun-13 11:13N 31°43' W 042°03'0 0.0 25.2
2018-Jun-13 10:57N 31°43' W 042°03'0 0.0 25.2
2018-Jun-13 10:54N 31°43' W 042°03'0 0.0 25.2
2018-Jun-13 10:46N 31°43' W 042°03'0 0.0 25.2
2018-Jun-13 10:22N 31°43' W 042°03'0 0.0 25.3
2018-Jun-13 10:19N 31°43' W 042°03'1 2.2 25.3
2018-Jun-13 10:03N 31°43' W 042°03'1 0.9 25.4
2018-Jun-13 09:10N 31°42' W 042°02'123.7
2018-Jun-13 09:07N 31°41' W 042°04'0 0.0 25.4
2018-Jun-13 08:46N 31°41' W 042°04'0 0.0 25.4
2018-Jun-13 08:25N 31°41' W 042°04'0 0.0 25.4
2018-Jun-13 08:19N 31°41' W 042°04'1 5.1 25.4
2018-Jun-13 08:13N 31°41' W 042°03'1 0.8 25.4
2018-Jun-13 06:40N 31°40' W 042°04'0 0.0 25.5
2018-Jun-13 06:39N 31°40' W 042°04'0 0.0 25.6
2018-Jun-13 06:36N 31°40' W 042°04'2 0.4 25.6
2018-Jun-13 00:36N 31°41' W 042°06'1 5.1 26.1
2018-Jun-13 00:30N 31°41' W 042°07'0 0.0 26.1
2018-Jun-13 00:07N 31°41' W 042°07'1 2.6 26.2
2018-Jun-12 23:55N 31°41' W 042°06'213.1
2018-Jun-12 23:48N 31°41' W 042°08'0 0.0 26.4
2018-Jun-12 22:55N 31°41' W 042°08'0 0.0 26.8
2018-Jun-12 22:48N 31°41' W 042°08'1 2.6 26.8
2018-Jun-12 22:24N 31°41' W 042°09'0 0.0 27.2
2018-Jun-12 22:16N 31°41' W 042°09'0 0.0 27.2
2018-Jun-12 22:09N 31°41' W 042°09'0 0.0
2018-Jun-12 22:06N 31°41' W 042°09'2 2.3 27.3
2018-Jun-12 21:10N 31°42' W 042°11'2 4.7
2018-Jun-12 20:49N 31°41' W 042°13'0 0.0 27.8
2018-Jun-12 19:51N 31°41' W 042°13'1 5.1 27.7
2018-Jun-12 19:45N 31°41' W 042°14'0 0.0 27.7
2018-Jun-12 19:31N 31°41' W 042°14'2 1.5 27.7
2018-Jun-12 18:10N 31°41' W 042°16'0 0.0
2018-Jun-12 18:09N 31°41' W 042°16'3 1.9 27.6
2018-Jun-12 16:30N 31°41' W 042°20'4 1.7 27.1
2018-Jun-12 14:16N 31°38' W 042°23'215.8 26.0
2018-Jun-12 14:10N 31°37' W 042°25'0 0.0
2018-Jun-12 13:21N 31°37' W 042°25'1 1.4 25.8
2018-Jun-12 12:46N 31°37' W 042°25'1 5.1 25.8
2018-Jun-12 12:40N 31°37' W 042°25'1 5.1 25.7
2018-Jun-12 12:34N 31°37' W 042°25'119.6 25.7
2018-Jun-12 12:30N 31°35' W 042°26'0 0.0 25.7
2018-Jun-12 11:39N 31°35' W 042°26'0 0.0 25.6
2018-Jun-12 11:33N 31°35' W 042°26'112.0 25.6
2018-Jun-12 11:30N 31°35' W 042°26'0 0.0 25.6
2018-Jun-12 11:06N 31°35' W 042°26'1 3.8 25.5
2018-Jun-12 10:58N 31°35' W 042°26'0 0.0 25.5
2018-Jun-12 10:55N 31°35' W 042°26'1 7.7
2018-Jun-12 10:51N 31°35' W 042°26'115.3
2018-Jun-12 10:49N 31°35' W 042°26'1 4.3 25.5
2018-Jun-12 10:31N 31°34' W 042°26'0 0.0 25.5
2018-Jun-12 09:25N 31°34' W 042°26'1 7.9 25.3
2018-Jun-12 09:19N 31°33' W 042°26'0 0.0 25.3
2018-Jun-12 09:09N 31°33' W 042°26'0 0.0 25.4
2018-Jun-12 08:55N 31°33' W 042°26'1 5.1 25.3
2018-Jun-12 08:48N 31°32' W 042°26'0 0.0 25.3
2018-Jun-12 08:31N 31°32' W 042°26'1 4.0 25.3
2018-Jun-12 08:22N 31°32' W 042°26'0 0.0 25.3
2018-Jun-12 07:16N 31°32' W 042°26'1 1.3 25.3
2018-Jun-12 06:52N 31°32' W 042°26'1 4.4 25.3
2018-Jun-12 06:45N 31°32' W 042°26'237.4 25.3
2018-Jun-12 06:42N 31°34' W 042°27'0 0.0 25.3
2018-Jun-12 06:39N 31°34' W 042°27'0 0.0 25.3
2018-Jun-12 00:55N 31°34' W 042°27'0 0.0 25.5
2018-Jun-12 00:52N 31°34' W 042°27'   25.5

Dump ship's entire track history